createdAt,value
2022-11-09T00:01:03.062Z,1.50
2022-11-09T00:06:06.194Z,2.03
2022-11-09T00:11:11.750Z,1.63
2022-11-09T00:16:19.018Z,2.15
2022-11-09T00:21:23.948Z,1.73
2022-11-09T00:26:27.142Z,1.33
2022-11-09T00:31:31.693Z,1.90
2022-11-09T00:36:34.855Z,1.80
2022-11-09T00:41:38.085Z,2.00
2022-11-09T00:46:42.545Z,1.92
2022-11-09T00:51:47.580Z,1.77
2022-11-09T00:56:50.874Z,1.65
2022-11-09T01:01:55.690Z,1.67
2022-11-09T01:06:59.094Z,1.60
2022-11-09T01:12:02.248Z,1.70
2022-11-09T01:17:06.920Z,1.80
2022-11-09T01:22:10.299Z,1.85
2022-11-09T01:27:13.547Z,1.40
2022-11-09T01:32:18.125Z,1.45
2022-11-09T01:37:21.323Z,1.87
2022-11-09T01:42:25.451Z,1.50
2022-11-09T01:47:30.443Z,1.50
2022-11-09T01:52:37.911Z,1.73
2022-11-09T01:57:47.107Z,1.80
2022-11-09T02:02:55.861Z,1.90
2022-11-09T02:08:01.844Z,2.15
2022-11-09T02:13:07.194Z,1.90
2022-11-09T02:18:15.230Z,1.42
2022-11-09T02:23:20.534Z,1.93
2022-11-09T02:28:26.326Z,1.80
2022-11-09T02:33:29.652Z,1.73
2022-11-09T02:38:34.323Z,1.98
2022-11-09T02:43:38.052Z,2.15
2022-11-09T02:48:42.457Z,1.70
2022-11-09T02:53:47.697Z,1.85
2022-11-09T02:58:51.019Z,1.55
2022-11-09T03:03:54.636Z,1.73
2022-11-09T03:08:59.177Z,2.08
2022-11-09T03:14:03.005Z,1.73
2022-11-09T03:19:07.672Z,2.13
2022-11-09T03:24:12.861Z,1.85
2022-11-09T03:29:17.340Z,2.05
2022-11-09T03:34:20.601Z,1.98
2022-11-09T03:39:25.289Z,1.63
2022-11-09T03:44:29.667Z,1.70
2022-11-09T03:49:32.771Z,1.88
2022-11-09T03:54:37.212Z,1.77
2022-11-09T03:59:40.423Z,2.07
2022-11-09T04:04:43.554Z,1.30
2022-11-09T04:09:48.030Z,2.00
2022-11-09T04:14:51.282Z,2.00
2022-11-09T04:19:54.456Z,1.95
2022-11-09T04:24:59.153Z,1.83
2022-11-09T04:30:02.260Z,2.03
2022-11-09T04:35:06.794Z,2.08
2022-11-09T04:40:12.684Z,1.90
2022-11-09T04:45:16.019Z,2.30
2022-11-09T04:50:19.235Z,1.98
2022-11-09T04:55:23.627Z,1.50
2022-11-09T05:00:27.232Z,2.17
2022-11-09T05:05:30.366Z,1.98
2022-11-09T05:10:35.374Z,2.05
2022-11-09T05:15:39.098Z,2.22
2022-11-09T05:20:42.235Z,1.92
2022-11-09T05:25:47.395Z,1.95
2022-11-09T05:35:54.575Z,2.08
2022-11-09T05:40:59.064Z,1.30
2022-11-09T05:46:06.395Z,2.43
2022-11-09T05:51:12.098Z,1.90
2022-11-09T05:56:17.248Z,2.03
2022-11-09T06:01:20.530Z,1.70
2022-11-09T06:06:23.556Z,1.90
2022-11-09T06:11:29.207Z,1.85
2022-11-09T06:16:32.460Z,1.70
2022-11-09T06:21:35.549Z,2.25
2022-11-09T06:26:40.027Z,1.90
2022-11-09T06:31:43.315Z,2.00
2022-11-09T06:36:46.679Z,1.92
2022-11-09T06:41:51.216Z,2.10
2022-11-09T06:46:54.308Z,1.57
2022-11-09T06:51:57.402Z,1.98
2022-11-09T06:57:01.932Z,2.10
2022-11-09T07:02:05.047Z,2.30
2022-11-09T07:07:08.216Z,1.98
2022-11-09T07:12:12.940Z,2.60
2022-11-09T07:17:16.186Z,1.87
2022-11-09T07:22:19.986Z,2.40
2022-11-09T07:27:27.787Z,2.28
2022-11-09T07:33:02.574Z,2.63
2022-11-09T07:38:00.951Z,2.35
2022-11-09T07:43:06.562Z,2.30
2022-11-09T07:48:12.006Z,2.35
2022-11-09T07:53:16.336Z,2.85
2022-11-09T07:58:20.920Z,2.42
2022-11-09T08:03:24.990Z,2.73
2022-11-09T08:08:28.187Z,2.90
2022-11-09T08:13:32.917Z,2.90
2022-11-09T08:18:36.071Z,2.60
2022-11-09T08:23:39.492Z,2.55
2022-11-09T08:28:43.942Z,2.58
2022-11-09T08:33:47.031Z,2.63
2022-11-09T08:38:50.129Z,2.95
2022-11-09T08:43:54.652Z,2.97
2022-11-09T08:48:57.854Z,2.30
2022-11-09T08:54:01.053Z,2.58
2022-11-09T08:59:05.606Z,2.42
2022-11-09T09:04:08.671Z,2.57
2022-11-09T09:09:12.040Z,2.28
2022-11-09T09:14:16.501Z,2.38
2022-11-09T09:19:19.811Z,3.47
2022-11-09T09:24:25.238Z,2.42
2022-11-09T09:29:29.749Z,2.22
2022-11-09T09:34:33.010Z,2.53
2022-11-09T09:39:36.219Z,2.53
2022-11-09T09:44:45.317Z,2.20
2022-11-09T09:49:55.033Z,2.70
2022-11-09T09:55:05.134Z,2.85
2022-11-09T10:00:24.129Z,2.60
2022-11-09T10:05:39.605Z,2.35
2022-11-09T10:10:50.591Z,2.40
2022-11-09T10:16:01.515Z,2.15
2022-11-09T10:21:17.602Z,2.50
2022-11-09T10:26:27.548Z,2.08
2022-11-09T10:31:34.407Z,2.28
2022-11-09T10:36:43.749Z,1.88
2022-11-09T10:41:47.126Z,2.30
2022-11-09T10:47:12.862Z,2.20
2022-11-09T10:52:47.197Z,2.15
2022-11-09T11:03:39.933Z,2.63
2022-11-09T11:09:15.687Z,2.50
2022-11-09T11:14:42.752Z,1.88
2022-11-09T11:20:27.763Z,1.85
2022-11-09T11:26:05.433Z,1.85
2022-11-09T11:31:27.003Z,2.58
2022-11-09T11:37:02.378Z,1.58
2022-11-09T11:42:51.681Z,2.08
2022-11-09T11:48:40.992Z,1.67
2022-11-09T11:54:14.055Z,1.73
2022-11-09T11:59:51.742Z,1.35
2022-11-09T12:05:40.520Z,1.40
2022-11-09T12:11:10.389Z,1.90
2022-11-09T12:16:40.431Z,1.80
2022-11-09T12:22:10.567Z,1.83
2022-11-09T12:27:47.592Z,1.42
2022-11-09T12:33:14.154Z,1.73
2022-11-09T12:38:42.088Z,1.38
2022-11-09T12:44:17.091Z,1.25
2022-11-09T12:49:40.977Z,1.33
2022-11-09T12:55:04.981Z,1.08
2022-11-09T13:00:47.925Z,1.23
2022-11-09T13:06:16.819Z,1.05
2022-11-09T13:11:40.622Z,1.25
2022-11-09T13:17:42.155Z,0.97
2022-11-09T13:23:41.593Z,1.10
2022-11-09T13:29:11.168Z,1.10
2022-11-09T13:34:42.074Z,1.27
2022-11-09T13:40:37.324Z,1.10
2022-11-09T13:46:00.954Z,1.00
2022-11-09T13:51:38.499Z,1.27
2022-11-09T13:57:03.425Z,1.15
2022-11-09T14:07:48.590Z,1.27
2022-11-09T14:13:42.050Z,1.40
2022-11-09T14:19:13.628Z,1.25
2022-11-09T14:24:38.036Z,1.27
2022-11-09T14:30:03.707Z,1.30
2022-11-09T14:35:28.894Z,1.55
2022-11-09T14:40:53.503Z,1.40
2022-11-09T14:46:18.255Z,1.45
2022-11-09T14:51:40.591Z,1.23
2022-11-09T14:57:03.936Z,1.38
2022-11-09T15:02:26.204Z,1.60
2022-11-09T15:07:48.415Z,1.35
2022-11-09T15:13:11.561Z,1.70
2022-11-09T15:18:36.863Z,2.30
2022-11-09T15:24:04.626Z,1.60
2022-11-09T15:29:37.715Z,1.60
2022-11-09T15:34:59.780Z,1.85
2022-11-09T15:40:24.534Z,1.73
2022-11-09T15:45:47.595Z,2.15
2022-11-09T15:51:09.153Z,1.80
2022-11-09T15:56:30.782Z,2.53
2022-11-09T16:01:53.549Z,2.08
2022-11-09T16:07:16.631Z,1.83
2022-11-09T16:12:43.705Z,2.10
2022-11-09T16:18:09.136Z,1.98
2022-11-09T16:23:30.964Z,2.40
2022-11-09T16:28:54.838Z,2.30
2022-11-09T16:34:18.265Z,2.25
2022-11-09T16:39:40.161Z,2.45
2022-11-09T16:45:09.127Z,2.45
2022-11-09T16:50:32.371Z,2.58
2022-11-09T16:55:54.610Z,2.40
2022-11-09T17:01:19.275Z,3.03
2022-11-09T17:06:46.812Z,2.97
2022-11-09T17:12:08.900Z,2.10
2022-11-09T17:17:30.812Z,2.72
2022-11-09T17:22:54.286Z,2.60
2022-11-09T17:28:16.447Z,2.70
2022-11-09T17:33:38.327Z,3.00
2022-11-09T17:39:01.631Z,3.95
2022-11-09T17:44:23.399Z,3.63
2022-11-09T17:49:45.302Z,4.00
2022-11-09T17:55:08.832Z,10.25
2022-11-09T18:00:30.741Z,11.55
2022-11-09T18:05:52.700Z,4.90
2022-11-09T18:11:17.092Z,3.78
2022-11-09T18:16:38.919Z,2.38
2022-11-09T18:22:02.981Z,1.95
2022-11-09T18:32:52.543Z,1.70
2022-11-09T18:38:15.640Z,1.83
2022-11-09T18:43:42.425Z,1.35
2022-11-09T18:49:07.928Z,1.50
2022-11-09T18:54:33.487Z,1.00
2022-11-09T18:59:56.422Z,1.20
2022-11-09T19:05:18.363Z,1.20
2022-11-09T19:10:40.122Z,1.65
2022-11-09T19:16:03.393Z,1.50
2022-11-09T19:21:35.736Z,1.50
2022-11-09T19:26:58.008Z,1.75
2022-11-09T19:32:21.475Z,1.70
2022-11-09T19:37:42.913Z,2.10
2022-11-09T19:43:04.463Z,2.35
2022-11-09T19:48:28.517Z,1.90
2022-11-09T19:53:51.335Z,3.10
2022-11-09T19:59:15.700Z,3.15
2022-11-09T20:04:38.676Z,3.78
2022-11-09T20:10:01.614Z,3.05
2022-11-09T20:15:23.729Z,3.20
2022-11-09T20:20:47.200Z,3.67
2022-11-09T20:26:11.504Z,5.30
2022-11-09T20:31:34.106Z,4.20
2022-11-09T20:36:57.244Z,4.18
2022-11-09T20:42:18.919Z,2.92
2022-11-09T20:48:05.255Z,4.43
2022-11-09T20:53:23.748Z,4.03
2022-11-09T20:58:45.673Z,2.92
2022-11-09T21:04:09.199Z,2.60
2022-11-09T21:09:32.585Z,2.78
2022-11-09T21:14:54.184Z,2.22
2022-11-09T21:20:16.936Z,2.45
2022-11-09T21:25:59.643Z,2.80
2022-11-09T21:31:22.720Z,3.40
2022-11-09T21:36:44.546Z,2.85
2022-11-09T21:42:07.753Z,3.13
2022-11-09T21:47:30.247Z,2.85
2022-11-09T21:52:51.949Z,2.92
2022-11-09T21:58:15.256Z,3.17
2022-11-09T22:03:38.279Z,2.40
2022-11-09T22:09:00.228Z,3.10
2022-11-09T22:14:42.166Z,2.78
2022-11-09T22:20:23.395Z,3.15
2022-11-09T22:25:48.115Z,2.38
2022-11-09T22:31:11.892Z,2.90
2022-11-09T22:36:33.494Z,2.30
2022-11-09T22:41:55.096Z,2.08
2022-11-09T22:47:17.967Z,2.58
2022-11-09T22:52:39.440Z,2.40
2022-11-09T22:58:00.906Z,2.00
2022-11-09T23:03:24.669Z,2.08
2022-11-09T23:08:47.515Z,2.53
2022-11-09T23:14:09.632Z,1.85
2022-11-09T23:19:32.903Z,2.20
2022-11-09T23:25:13.603Z,1.95
2022-11-09T23:30:35.877Z,1.77
2022-11-09T23:36:02.228Z,1.40
2022-11-09T23:41:23.996Z,2.42
2022-11-09T23:46:45.796Z,1.80
2022-11-09T23:52:09.121Z,1.33
2022-11-09T23:57:31.012Z,1.92
